createdAt,value
2018-03-30T00:00:44.177Z,62.80
2018-03-30T00:03:12.422Z,62.18
2018-03-30T00:05:41.555Z,62.10
2018-03-30T00:08:09.828Z,62.82
2018-03-30T00:10:43.850Z,62.48
2018-03-30T00:13:12.111Z,62.45
2018-03-30T00:15:40.381Z,62.56
2018-03-30T00:18:08.704Z,62.92
2018-03-30T00:20:36.948Z,62.81
2018-03-30T00:23:05.220Z,62.89
2018-03-30T00:25:33.486Z,62.80
2018-03-30T00:28:01.745Z,62.44
2018-03-30T00:30:30.024Z,62.75
2018-03-30T00:32:58.282Z,62.49
2018-03-30T00:35:26.551Z,62.33
2018-03-30T00:37:54.816Z,62.00
2018-03-30T00:40:23.103Z,61.86
2018-03-30T00:42:51.364Z,61.31
2018-03-30T00:45:19.623Z,62.03
2018-03-30T00:47:47.897Z,62.31
2018-03-30T00:50:17.016Z,61.15
2018-03-30T00:52:45.315Z,61.09
2018-03-30T00:55:13.571Z,61.07
2018-03-30T00:57:41.839Z,61.07
2018-03-30T01:00:10.092Z,60.88
2018-03-30T01:02:38.355Z,60.42
2018-03-30T01:05:06.616Z,60.09
2018-03-30T01:07:34.883Z,59.63
2018-03-30T01:10:03.203Z,59.46
2018-03-30T01:12:31.464Z,59.25
2018-03-30T01:14:59.723Z,58.66
2018-03-30T01:17:27.988Z,59.01
2018-03-30T01:19:56.251Z,59.54
2018-03-30T01:22:24.508Z,59.32
2018-03-30T01:24:52.796Z,59.01
2018-03-30T01:27:21.059Z,59.24
2018-03-30T01:29:49.312Z,58.83
2018-03-30T01:32:17.587Z,58.86
2018-03-30T01:34:45.848Z,59.31
2018-03-30T01:37:14.115Z,58.67
2018-03-30T01:39:42.376Z,59.22
2018-03-30T01:42:10.654Z,59.28
2018-03-30T01:44:38.911Z,59.72
2018-03-30T01:47:07.191Z,60.26
2018-03-30T01:49:35.447Z,60.49
2018-03-30T01:52:03.716Z,60.46
2018-03-30T01:54:32.076Z,59.60
2018-03-30T01:57:00.356Z,60.87
2018-03-30T01:59:28.628Z,61.18
2018-03-30T02:01:56.888Z,61.09
2018-03-30T02:04:25.159Z,61.32
2018-03-30T02:06:53.420Z,61.22
2018-03-30T02:09:21.690Z,61.16
2018-03-30T02:11:49.953Z,61.25
2018-03-30T02:14:18.232Z,61.86
2018-03-30T02:16:46.483Z,61.87
2018-03-30T02:19:14.759Z,61.86
2018-03-30T02:21:43.035Z,61.50
2018-03-30T02:24:11.291Z,61.16
2018-03-30T02:26:39.556Z,61.55
2018-03-30T02:29:07.814Z,60.65
2018-03-30T02:31:36.079Z,60.52
2018-03-30T02:34:04.336Z,60.53
2018-03-30T02:36:32.635Z,60.51
2018-03-30T02:39:00.888Z,59.32
2018-03-30T02:41:29.156Z,59.36
2018-03-30T02:43:57.424Z,59.32
2018-03-30T02:46:25.675Z,58.76
2018-03-30T02:48:53.945Z,58.82
2018-03-30T02:51:22.196Z,58.50
2018-03-30T02:53:50.460Z,58.76
2018-03-30T02:56:18.719Z,59.03
2018-03-30T02:58:46.996Z,59.02
2018-03-30T03:01:15.259Z,59.37
2018-03-30T03:03:43.504Z,58.82
2018-03-30T03:06:11.764Z,59.15
2018-03-30T03:08:40.033Z,60.20
2018-03-30T03:11:08.287Z,60.19
2018-03-30T03:13:36.543Z,60.10
2018-03-30T03:16:04.811Z,60.08
2018-03-30T03:18:33.063Z,59.96
2018-03-30T03:21:01.328Z,59.76
2018-03-30T03:23:29.598Z,59.04
2018-03-30T03:25:57.862Z,58.39
2018-03-30T03:28:26.111Z,58.58
2018-03-30T03:30:54.372Z,58.30
2018-03-30T03:33:22.636Z,57.96
2018-03-30T03:35:51.381Z,58.29
2018-03-30T03:38:19.644Z,58.28
2018-03-30T03:40:47.910Z,58.13
2018-03-30T03:43:16.180Z,58.34
2018-03-30T03:45:44.438Z,58.94
2018-03-30T03:48:12.707Z,59.08
2018-03-30T03:50:40.968Z,59.50
2018-03-30T03:53:09.222Z,58.71
2018-03-30T03:55:37.485Z,58.43
2018-03-30T03:58:05.739Z,58.64
2018-03-30T04:00:33.995Z,58.99
2018-03-30T04:03:02.255Z,59.10
2018-03-30T04:05:30.520Z,59.34
2018-03-30T04:07:58.776Z,59.26
2018-03-30T04:10:27.060Z,59.59
2018-03-30T04:12:55.319Z,59.08
2018-03-30T04:15:23.576Z,59.18
2018-03-30T04:17:51.843Z,59.02
2018-03-30T04:20:20.107Z,58.82
2018-03-30T04:22:48.376Z,59.52
2018-03-30T04:25:16.627Z,59.21
2018-03-30T04:27:44.891Z,59.05
2018-03-30T04:30:13.148Z,58.73
2018-03-30T04:32:41.419Z,59.30
2018-03-30T04:35:09.676Z,59.21
2018-03-30T04:37:37.932Z,59.92
2018-03-30T04:40:06.191Z,60.02
2018-03-30T04:42:34.444Z,59.83
2018-03-30T04:45:02.711Z,59.38
2018-03-30T04:47:30.963Z,59.66
2018-03-30T04:49:59.249Z,59.68
2018-03-30T04:52:27.483Z,60.68
2018-03-30T04:54:55.756Z,59.68
2018-03-30T04:57:24.008Z,60.90
2018-03-30T04:59:52.268Z,61.13
2018-03-30T05:02:20.536Z,62.08
2018-03-30T05:04:48.801Z,62.27
2018-03-30T05:07:17.076Z,62.75
2018-03-30T05:09:45.331Z,63.57
2018-03-30T05:12:13.595Z,63.66
2018-03-30T05:14:41.852Z,63.72
2018-03-30T05:17:10.123Z,63.26
2018-03-30T05:19:38.381Z,63.36
2018-03-30T05:22:06.689Z,63.23
2018-03-30T05:24:34.906Z,62.88
2018-03-30T05:27:03.166Z,62.04
2018-03-30T05:29:31.439Z,62.32
2018-03-30T05:31:59.699Z,61.43
2018-03-30T05:34:27.973Z,61.87
2018-03-30T05:36:56.226Z,61.70
2018-03-30T05:39:24.507Z,60.45
2018-03-30T05:41:52.768Z,59.85
2018-03-30T05:44:21.029Z,59.84
2018-03-30T05:46:49.293Z,60.37
2018-03-30T05:49:17.558Z,59.90
2018-03-30T05:51:45.815Z,59.27
2018-03-30T05:54:14.067Z,59.79
2018-03-30T05:56:42.334Z,59.78
2018-03-30T05:59:10.590Z,58.81
2018-03-30T06:01:38.867Z,58.95
2018-03-30T06:04:07.128Z,59.61
2018-03-30T06:06:35.388Z,59.48
2018-03-30T06:09:03.660Z,59.23
2018-03-30T06:11:31.920Z,59.05
2018-03-30T06:14:00.184Z,58.79
2018-03-30T06:16:28.445Z,59.04
2018-03-30T06:18:56.707Z,58.42
2018-03-30T06:21:24.962Z,58.57
2018-03-30T06:23:53.228Z,58.39
2018-03-30T06:26:21.495Z,58.47
2018-03-30T06:28:49.757Z,58.27
2018-03-30T06:31:18.015Z,58.04
2018-03-30T06:33:46.271Z,57.99
2018-03-30T06:36:14.536Z,58.00
2018-03-30T06:38:42.791Z,57.63
2018-03-30T06:41:11.056Z,57.87
2018-03-30T06:43:39.315Z,57.05
2018-03-30T06:46:07.580Z,56.13
2018-03-30T06:48:35.839Z,55.87
2018-03-30T06:51:04.104Z,54.93
2018-03-30T06:53:32.359Z,54.09
2018-03-30T06:56:00.615Z,53.08
2018-03-30T06:58:28.883Z,52.45
2018-03-30T07:00:57.143Z,51.49
2018-03-30T07:03:25.419Z,50.42
2018-03-30T07:05:53.682Z,49.59
2018-03-30T07:08:21.976Z,49.13
2018-03-30T07:10:50.264Z,48.52
2018-03-30T07:13:18.526Z,46.40
2018-03-30T07:15:46.804Z,48.39
2018-03-30T07:18:15.059Z,47.96
2018-03-30T07:20:43.328Z,48.71
2018-03-30T07:23:11.596Z,47.61
2018-03-30T07:25:39.940Z,46.04
2018-03-30T07:28:08.208Z,45.43
2018-03-30T07:30:36.496Z,46.13
2018-03-30T07:33:04.755Z,47.42
2018-03-30T07:35:33.020Z,45.11
2018-03-30T07:38:01.303Z,46.09
2018-03-30T07:40:29.560Z,44.67
2018-03-30T07:42:57.822Z,45.64
2018-03-30T07:45:26.087Z,44.35
2018-03-30T07:47:54.355Z,44.55
2018-03-30T07:50:22.615Z,44.77
2018-03-30T07:52:50.900Z,45.03
2018-03-30T07:55:19.160Z,44.25
2018-03-30T07:57:47.421Z,44.57
2018-03-30T08:00:15.692Z,44.12
2018-03-30T08:02:43.957Z,43.70
2018-03-30T08:05:12.232Z,44.34
2018-03-30T08:07:40.503Z,44.18
2018-03-30T08:10:08.771Z,43.62
2018-03-30T08:12:37.044Z,43.05
2018-03-30T08:15:05.308Z,45.12
2018-03-30T08:17:33.575Z,43.99
2018-03-30T08:20:01.847Z,43.21
2018-03-30T08:22:33.375Z,46.85
2018-03-30T08:25:01.669Z,43.28
2018-03-30T08:27:30.175Z,42.33
2018-03-30T08:29:58.486Z,44.11
2018-03-30T08:32:26.759Z,40.84
2018-03-30T08:34:55.027Z,42.53
2018-03-30T08:37:23.303Z,39.26
2018-03-30T08:39:51.660Z,40.58
2018-03-30T08:42:19.932Z,43.17
2018-03-30T08:44:48.309Z,42.35
2018-03-30T08:47:16.631Z,44.48
2018-03-30T08:49:44.907Z,42.94
2018-03-30T08:52:13.187Z,42.69
2018-03-30T08:54:41.461Z,42.25
2018-03-30T08:57:09.725Z,42.50
2018-03-30T08:59:37.996Z,43.11
2018-03-30T09:02:06.264Z,43.17
2018-03-30T09:04:34.548Z,42.89
2018-03-30T09:07:02.836Z,43.23
2018-03-30T09:09:31.115Z,43.23
2018-03-30T09:11:59.395Z,43.73
2018-03-30T09:14:27.679Z,42.87
2018-03-30T09:16:55.952Z,42.44
2018-03-30T09:19:24.258Z,42.84
2018-03-30T09:21:52.568Z,43.11
2018-03-30T09:24:21.112Z,42.96
2018-03-30T09:26:50.048Z,42.71
2018-03-30T09:29:18.308Z,41.72
2018-03-30T09:31:46.580Z,43.44
2018-03-30T09:34:14.916Z,40.54
2018-03-30T09:36:43.187Z,40.96
2018-03-30T09:39:11.469Z,41.97
2018-03-30T09:41:39.759Z,39.87
2018-03-30T09:44:08.172Z,40.53
2018-03-30T09:46:36.502Z,41.06
2018-03-30T09:49:04.772Z,40.92
2018-03-30T09:51:33.055Z,41.16
2018-03-30T09:54:01.321Z,40.94
2018-03-30T09:56:29.605Z,40.96
2018-03-30T09:58:59.392Z,41.93
2018-03-30T10:01:27.653Z,39.62
2018-03-30T10:03:55.943Z,39.81
2018-03-30T10:06:24.187Z,38.99
2018-03-30T10:08:52.463Z,38.97
2018-03-30T10:11:20.757Z,39.86
2018-03-30T10:13:49.040Z,42.06
2018-03-30T10:16:17.303Z,39.65
2018-03-30T10:18:45.641Z,39.85
2018-03-30T10:21:13.844Z,39.20
2018-03-30T10:23:42.108Z,39.92
2018-03-30T10:26:10.379Z,38.84
2018-03-30T10:28:38.660Z,39.33
2018-03-30T10:31:07.003Z,38.63
2018-03-30T10:33:35.268Z,38.35
2018-03-30T10:36:03.561Z,37.43
2018-03-30T10:38:31.816Z,37.58
2018-03-30T10:41:00.103Z,41.17
2018-03-30T10:43:28.363Z,36.67
2018-03-30T10:45:56.631Z,36.00
2018-03-30T10:48:24.896Z,35.20
2018-03-30T10:50:53.166Z,34.78
2018-03-30T10:53:21.430Z,32.88
2018-03-30T10:55:49.707Z,33.19
2018-03-30T10:58:18.015Z,33.17
2018-03-30T11:00:46.279Z,34.04
2018-03-30T11:03:14.554Z,33.15
2018-03-30T11:05:48.367Z,33.67
2018-03-30T11:08:16.652Z,33.51
2018-03-30T11:10:44.925Z,33.78
2018-03-30T11:13:13.229Z,34.54
2018-03-30T11:15:41.491Z,33.40
2018-03-30T11:18:09.764Z,33.35
2018-03-30T11:20:38.025Z,33.63
2018-03-30T11:23:06.300Z,34.38
2018-03-30T11:25:34.568Z,33.08
2018-03-30T11:28:02.891Z,33.52
2018-03-30T11:30:31.168Z,37.01
2018-03-30T11:32:59.440Z,33.19
2018-03-30T11:35:27.720Z,33.39
2018-03-30T11:37:55.993Z,33.81
2018-03-30T11:40:24.848Z,34.08
2018-03-30T11:42:53.112Z,34.61
2018-03-30T11:45:21.388Z,34.14
2018-03-30T11:47:49.652Z,35.37
2018-03-30T11:50:17.933Z,36.11
2018-03-30T11:52:46.209Z,35.63
2018-03-30T11:55:14.474Z,35.74
2018-03-30T11:57:42.740Z,37.04
2018-03-30T12:00:11.020Z,37.10
2018-03-30T12:02:39.310Z,39.73
2018-03-30T12:05:07.576Z,36.64
2018-03-30T12:07:35.844Z,36.58
2018-03-30T12:10:04.111Z,37.25
2018-03-30T12:12:32.429Z,37.48
2018-03-30T12:15:00.697Z,36.68
2018-03-30T12:17:28.969Z,38.02
2018-03-30T12:19:57.244Z,37.13
2018-03-30T12:22:25.510Z,42.23
2018-03-30T12:24:53.788Z,36.30
2018-03-30T12:27:22.059Z,36.34
2018-03-30T12:29:50.335Z,36.11
2018-03-30T12:32:18.640Z,36.41
2018-03-30T12:34:46.903Z,36.07
2018-03-30T12:37:15.164Z,35.61
2018-03-30T12:39:43.436Z,36.13
2018-03-30T12:42:11.736Z,35.40
2018-03-30T12:44:40.017Z,35.27
2018-03-30T12:47:08.280Z,36.54
2018-03-30T12:49:36.555Z,36.26
2018-03-30T12:52:04.828Z,36.78
2018-03-30T12:54:33.104Z,36.38
2018-03-30T12:57:01.374Z,36.45
2018-03-30T12:59:29.651Z,35.99
2018-03-30T13:01:57.937Z,35.26
2018-03-30T13:04:26.221Z,35.30
2018-03-30T13:06:54.483Z,35.21
2018-03-30T13:09:22.753Z,35.14
2018-03-30T13:11:51.017Z,35.55
2018-03-30T13:14:19.350Z,35.70
2018-03-30T13:16:47.571Z,37.18
2018-03-30T13:19:15.843Z,36.65
2018-03-30T13:21:44.125Z,36.38
2018-03-30T13:24:12.395Z,36.03
2018-03-30T13:26:40.700Z,36.12
2018-03-30T13:29:08.940Z,36.52
2018-03-30T13:31:37.213Z,36.43
2018-03-30T13:34:05.495Z,39.07
2018-03-30T13:36:33.780Z,35.74
2018-03-30T13:39:02.044Z,36.04
2018-03-30T13:41:30.339Z,36.46
2018-03-30T13:43:58.630Z,35.63
2018-03-30T13:46:26.892Z,36.25
2018-03-30T13:48:55.540Z,35.41
2018-03-30T13:51:32.284Z,34.46
2018-03-30T13:54:00.555Z,34.51
2018-03-30T13:56:29.731Z,34.15
2018-03-30T13:59:15.441Z,34.34
2018-03-30T14:01:49.248Z,34.06
2018-03-30T14:04:37.956Z,33.65
2018-03-30T14:07:14.664Z,34.25
2018-03-30T14:09:43.716Z,34.17
2018-03-30T14:12:25.549Z,34.67
2018-03-30T14:14:53.828Z,34.37
2018-03-30T14:17:23.912Z,34.48
2018-03-30T14:19:52.963Z,34.31
2018-03-30T14:22:24.751Z,34.26
2018-03-30T14:24:55.779Z,33.99
2018-03-30T14:27:26.675Z,33.54
2018-03-30T14:29:57.659Z,33.87
2018-03-30T14:32:26.763Z,34.16
2018-03-30T14:37:53.511Z,34.10
2018-03-30T14:40:22.707Z,33.51
2018-03-30T14:42:53.716Z,33.77
2018-03-30T14:45:24.130Z,34.08
2018-03-30T14:47:55.816Z,34.31
2018-03-30T14:50:24.900Z,33.99
2018-03-30T14:52:57.060Z,34.23
2018-03-30T14:55:36.167Z,34.24
2018-03-30T14:58:16.299Z,34.22
2018-03-30T15:00:46.301Z,35.02
2018-03-30T15:03:17.119Z,35.71
2018-03-30T15:05:58.197Z,35.44
2018-03-30T15:08:45.723Z,35.98
2018-03-30T15:11:27.450Z,35.83
2018-03-30T15:13:57.112Z,35.88
2018-03-30T15:19:52.144Z,36.06
2018-03-30T15:22:21.032Z,36.01
2018-03-30T15:24:50.097Z,36.22
2018-03-30T15:27:38.198Z,36.27
2018-03-30T15:33:06.771Z,36.56
2018-03-30T15:38:36.616Z,36.75
2018-03-30T15:41:04.875Z,36.04
2018-03-30T15:43:34.816Z,36.96
2018-03-30T15:49:16.012Z,36.73
2018-03-30T15:52:00.084Z,36.60
2018-03-30T15:54:27.803Z,36.60
2018-03-30T15:56:56.079Z,37.46
2018-03-30T15:59:24.347Z,37.85
2018-03-30T16:01:52.611Z,37.49
2018-03-30T16:04:20.880Z,38.56
2018-03-30T16:06:49.148Z,38.99
2018-03-30T16:09:24.123Z,39.19
2018-03-30T16:11:53.854Z,39.68
2018-03-30T16:14:22.131Z,39.89
2018-03-30T16:16:50.395Z,39.90
2018-03-30T16:19:18.136Z,39.84
2018-03-30T16:21:45.873Z,39.88
2018-03-30T16:24:13.605Z,40.22
2018-03-30T16:26:41.330Z,40.35
2018-03-30T16:29:09.083Z,40.82
2018-03-30T16:31:36.826Z,41.36
2018-03-30T16:34:04.552Z,41.65
2018-03-30T16:36:32.284Z,41.95
2018-03-30T16:39:00.034Z,42.16
2018-03-30T16:41:27.483Z,42.07
2018-03-30T16:43:54.974Z,42.50
2018-03-30T16:46:22.411Z,42.94
2018-03-30T16:48:49.862Z,42.98
2018-03-30T16:51:17.318Z,43.35
2018-03-30T16:53:44.760Z,43.70
2018-03-30T16:56:12.216Z,43.83
2018-03-30T16:58:39.688Z,44.50
2018-03-30T17:01:07.149Z,45.81
2018-03-30T17:03:34.599Z,47.13
2018-03-30T17:06:02.056Z,47.51
2018-03-30T17:08:29.505Z,49.76
2018-03-30T17:10:56.966Z,50.30
2018-03-30T17:13:24.433Z,51.51
2018-03-30T17:15:51.883Z,50.85
2018-03-30T17:18:19.380Z,51.14
2018-03-30T17:20:46.836Z,51.54
2018-03-30T17:23:14.283Z,52.28
2018-03-30T17:25:41.728Z,51.62
2018-03-30T17:28:09.300Z,52.42
2018-03-30T17:30:36.860Z,51.92
2018-03-30T17:33:04.341Z,52.81
2018-03-30T17:35:31.789Z,53.58
2018-03-30T17:37:59.243Z,54.26
2018-03-30T17:40:26.692Z,55.64
2018-03-30T17:42:54.180Z,55.44
2018-03-30T17:45:21.624Z,56.08
2018-03-30T17:47:49.080Z,56.53
2018-03-30T17:50:16.523Z,56.55
2018-03-30T17:52:44.000Z,56.77
2018-03-30T17:55:11.446Z,57.46
2018-03-30T17:57:38.899Z,58.63
2018-03-30T18:00:06.340Z,59.07
2018-03-30T18:02:33.795Z,58.28
2018-03-30T18:05:01.236Z,58.78
2018-03-30T18:07:28.705Z,58.77
2018-03-30T18:09:56.144Z,59.61
2018-03-30T18:12:23.601Z,59.75
2018-03-30T18:14:51.056Z,58.95
2018-03-30T18:17:18.576Z,58.57
2018-03-30T18:19:46.078Z,58.77
2018-03-30T18:22:13.529Z,58.82
2018-03-30T18:24:40.983Z,58.94
2018-03-30T18:27:08.435Z,58.78
2018-03-30T18:29:35.891Z,59.03
2018-03-30T18:32:03.339Z,59.26
2018-03-30T18:34:30.800Z,59.43
2018-03-30T18:36:58.249Z,58.94
2018-03-30T18:39:25.703Z,59.60
2018-03-30T18:41:53.151Z,59.32
2018-03-30T18:44:20.604Z,58.43
2018-03-30T18:46:48.044Z,59.07
2018-03-30T18:49:15.501Z,58.95
2018-03-30T18:51:42.943Z,58.89
2018-03-30T18:54:10.401Z,58.62
2018-03-30T18:56:37.895Z,59.01
2018-03-30T18:59:05.348Z,59.14
2018-03-30T19:01:32.792Z,60.21
2018-03-30T19:04:00.235Z,60.97
2018-03-30T19:06:27.700Z,60.46
2018-03-30T19:08:55.135Z,60.84
2018-03-30T19:11:22.600Z,60.46
2018-03-30T19:13:50.048Z,60.54
2018-03-30T19:16:17.503Z,61.20
2018-03-30T19:18:44.953Z,62.79
2018-03-30T19:21:12.404Z,63.02
2018-03-30T19:23:39.856Z,63.59
2018-03-30T19:26:07.319Z,64.87
2018-03-30T19:28:41.720Z,65.16
2018-03-30T19:31:09.173Z,65.78
2018-03-30T19:33:38.599Z,67.09
2018-03-30T19:36:06.057Z,66.57
2018-03-30T19:38:33.692Z,67.33
2018-03-30T19:41:02.167Z,66.85
2018-03-30T19:43:29.607Z,66.37
2018-03-30T19:46:07.519Z,67.49
2018-03-30T19:48:34.968Z,67.36
2018-03-30T19:51:02.448Z,68.31
2018-03-30T19:53:29.907Z,68.97
2018-03-30T19:55:57.359Z,69.41
2018-03-30T19:58:24.817Z,68.29
2018-03-30T20:00:52.267Z,69.10
2018-03-30T20:03:19.731Z,69.33
2018-03-30T20:05:47.183Z,68.30
2018-03-30T20:08:14.635Z,68.60
2018-03-30T20:10:42.080Z,68.88
2018-03-30T20:13:09.553Z,68.41
2018-03-30T20:15:37.006Z,69.28
2018-03-30T20:18:04.451Z,69.51
2018-03-30T20:20:31.924Z,69.52
2018-03-30T20:22:59.379Z,68.73
2018-03-30T20:25:26.828Z,69.59
2018-03-30T20:27:54.280Z,70.21
2018-03-30T20:30:21.727Z,69.58
2018-03-30T20:32:49.203Z,69.74
2018-03-30T20:35:16.658Z,70.45
2018-03-30T20:37:44.095Z,68.88
2018-03-30T20:40:11.547Z,68.32
2018-03-30T20:42:39.029Z,68.47
2018-03-30T20:45:06.472Z,68.56
2018-03-30T20:47:33.943Z,69.22
2018-03-30T20:50:01.405Z,68.95
2018-03-30T20:52:28.876Z,69.63
2018-03-30T20:54:56.341Z,69.90
2018-03-30T20:57:23.795Z,70.56
2018-03-30T20:59:51.256Z,69.76
2018-03-30T21:02:18.699Z,69.96
2018-03-30T21:04:46.315Z,69.15
2018-03-30T21:07:13.740Z,69.44
2018-03-30T21:09:41.188Z,69.88
2018-03-30T21:12:08.641Z,69.29
2018-03-30T21:14:36.109Z,69.68
2018-03-30T21:17:03.559Z,69.40
2018-03-30T21:19:31.021Z,69.08
2018-03-30T21:21:58.463Z,69.65
2018-03-30T21:24:25.920Z,69.13
2018-03-30T21:26:53.428Z,68.71
2018-03-30T21:29:20.916Z,69.24
2018-03-30T21:31:48.355Z,69.26
2018-03-30T21:34:15.832Z,68.49
2018-03-30T21:36:43.293Z,68.81
2018-03-30T21:39:10.761Z,68.47
2018-03-30T21:41:38.224Z,69.08
2018-03-30T21:44:05.681Z,69.39
2018-03-30T21:46:33.148Z,69.48
2018-03-30T21:49:00.612Z,69.20
2018-03-30T21:51:28.065Z,69.00
2018-03-30T21:53:55.512Z,67.85
2018-03-30T21:56:22.968Z,68.63
2018-03-30T21:58:50.419Z,68.33
2018-03-30T22:01:17.893Z,68.20
2018-03-30T22:03:45.339Z,67.41
2018-03-30T22:06:12.783Z,67.72
2018-03-30T22:08:40.240Z,67.77
2018-03-30T22:11:07.695Z,67.64
2018-03-30T22:13:35.148Z,68.00
2018-03-30T22:16:02.603Z,68.21
2018-03-30T22:18:30.059Z,67.82
2018-03-30T22:20:57.515Z,67.63
2018-03-30T22:23:24.991Z,68.24
2018-03-30T22:25:52.439Z,69.46
2018-03-30T22:28:19.903Z,68.70
2018-03-30T22:30:47.351Z,68.90
2018-03-30T22:33:14.851Z,68.34
2018-03-30T22:35:42.251Z,68.66
2018-03-30T22:38:09.712Z,68.53
2018-03-30T22:40:37.160Z,69.71
2018-03-30T22:43:04.611Z,69.27
2018-03-30T22:45:32.060Z,69.12
2018-03-30T22:47:59.516Z,68.99
2018-03-30T22:50:26.956Z,68.25
2018-03-30T22:52:54.420Z,68.66
2018-03-30T22:55:21.866Z,68.85
2018-03-30T22:57:49.311Z,68.77
2018-03-30T23:00:16.789Z,68.51
2018-03-30T23:02:44.236Z,69.22
2018-03-30T23:05:11.992Z,69.55
2018-03-30T23:07:39.711Z,69.07
2018-03-30T23:10:07.439Z,69.34
2018-03-30T23:12:35.176Z,69.39
2018-03-30T23:15:02.907Z,68.47
2018-03-30T23:17:30.638Z,69.40
2018-03-30T23:19:58.372Z,68.27
2018-03-30T23:22:26.097Z,68.90
2018-03-30T23:24:53.831Z,68.28
2018-03-30T23:27:21.582Z,68.26
2018-03-30T23:29:49.315Z,68.73
2018-03-30T23:32:17.038Z,68.76
2018-03-30T23:34:44.776Z,68.22
2018-03-30T23:37:12.505Z,69.03
2018-03-30T23:39:40.245Z,69.20
2018-03-30T23:42:08.007Z,70.32
2018-03-30T23:44:35.677Z,70.25
2018-03-30T23:47:03.405Z,70.38
2018-03-30T23:49:31.137Z,70.38
2018-03-30T23:51:58.867Z,70.12
2018-03-30T23:54:26.593Z,69.22
2018-03-30T23:56:54.323Z,70.45
2018-03-30T23:59:22.047Z,70.47
